Time;durP1;ratioP1;P1;durP2;ratioP2;P2;SDS_P1;SDS_P2;PMS_P1;PMS_P2;Temp;Humidity;BMP_temperature;BMP_pressure;BME280_temperature;BME280_humidity;BME280_pressure;Samples;Min_cycle;Max_cycle;Signal;HPM_P1;HPM_P2
2021/04/19 00:00:00;;;;;;;66.20;30.98;;;8.30;99.90;;;;;;5134001;27;20256;-76
2021/04/19 00:02:25;;;;;;;55.60;30.67;;;8.50;99.90;;;;;;5133565;27;20184;-76
2021/04/19 00:04:51;;;;;;;64.13;29.73;;;8.40;99.90;;;;;;5121405;27;20272;-76
2021/04/19 00:07:17;;;;;;;54.90;29.80;;;8.30;99.90;;;;;;5113263;28;20181;-76
2021/04/19 00:09:43;;;;;;;52.90;28.05;;;8.30;99.90;;;;;;5114628;28;20624;-76
2021/04/19 00:12:09;;;;;;;60.35;28.50;;;8.20;99.90;;;;;;5113204;28;20221;-76
2021/04/19 00:14:35;;;;;;;56.97;28.33;;;8.20;99.90;;;;;;5112748;28;20280;-76
2021/04/19 00:17:01;;;;;;;50.55;27.30;;;8.20;99.90;;;;;;5114313;28;20629;-77
2021/04/19 00:19:26;;;;;;;48.25;27.63;;;8.10;99.90;;;;;;5112453;28;20164;-77
2021/04/19 00:21:53;;;;;;;56.95;29.75;;;8.10;99.90;;;;;;5112838;28;20220;-76
2021/04/19 00:24:19;;;;;;;47.42;26.05;;;8.10;99.90;;;;;;5114251;28;20588;-77
2021/04/19 00:26:45;;;;;;;50.33;29.02;;;8.00;99.90;;;;;;5114168;28;20201;-76
2021/04/19 00:29:10;;;;;;;52.58;27.90;;;8.00;99.90;;;;;;5112573;28;20170;-75
2021/04/19 00:31:36;;;;;;;66.32;31.23;;;8.00;99.90;;;;;;5112568;28;20621;-76
2021/04/19 00:34:02;;;;;;;54.58;30.50;;;8.00;99.90;;;;;;5113468;28;20238;-76
2021/04/19 00:36:29;;;;;;;55.88;29.67;;;8.00;99.90;;;;;;5114210;28;20222;-76
2021/04/19 00:38:54;;;;;;;54.30;28.45;;;8.10;99.90;;;;;;5112528;28;20188;-76
2021/04/19 00:41:20;;;;;;;62.53;30.35;;;8.00;99.90;;;;;;5113741;28;20181;-76
2021/04/19 00:43:46;;;;;;;53.20;30.33;;;7.90;99.90;;;;;;5112317;28;20168;-76
2021/04/19 00:46:12;;;;;;;58.65;29.30;;;7.90;99.90;;;;;;5113603;28;20173;-75
2021/04/19 00:48:38;;;;;;;50.60;28.58;;;7.90;99.90;;;;;;5112815;28;20166;-76
2021/04/19 00:51:05;;;;;;;65.40;29.85;;;7.80;99.90;;;;;;5113326;28;20625;-76
2021/04/19 00:53:31;;;;;;;61.45;30.27;;;7.70;99.90;;;;;;5112582;28;20268;-76
2021/04/19 00:55:57;;;;;;;55.85;30.95;;;7.70;99.90;;;;;;5112297;28;20241;-77
2021/04/19 00:58:26;;;;;;;62.63;30.10;;;7.80;99.90;;;;;;5112236;28;20185;-76
2021/04/19 01:00:53;;;;;;;58.83;30.23;;;7.70;99.90;;;;;;5113582;28;20248;-77
2021/04/19 01:03:18;;;;;;;53.92;31.05;;;7.80;99.90;;;;;;5112278;28;20753;-76
2021/04/19 01:05:45;;;;;;;55.80;31.42;;;7.80;99.90;;;;;;5112365;28;20268;-76
2021/04/19 01:08:11;;;;;;;66.90;31.42;;;7.70;99.90;;;;;;5112568;28;20175;-76
2021/04/19 01:10:38;;;;;;;58.53;30.95;;;7.70;99.90;;;;;;5113467;28;20531;-75
2021/04/19 01:13:05;;;;;;;57.35;31.50;;;7.70;99.90;;;;;;5113279;28;20165;-76
2021/04/19 01:15:32;;;;;;;63.08;32.40;;;7.60;99.90;;;;;;5111809;28;20185;-76
2021/04/19 01:17:58;;;;;;;59.03;31.77;;;7.70;99.90;;;;;;5113529;28;20162;-76
2021/04/19 01:20:26;;;;;;;63.28;34.30;;;7.70;99.90;;;;;;5112720;28;20244;-75
2021/04/19 01:22:52;;;;;;;68.45;33.20;;;7.60;99.90;;;;;;5112263;28;20192;-76
2021/04/19 01:25:21;;;;;;;71.00;33.92;;;7.50;99.90;;;;;;5112043;28;20617;-76
2021/04/19 01:27:47;;;;;;;64.32;34.30;;;7.50;99.90;;;;;;5112209;28;20166;-77
2021/04/19 01:30:15;;;;;;;61.13;32.50;;;7.50;99.90;;;;;;5096628;28;20665;-76
2021/04/19 01:32:42;;;;;;;54.00;30.80;;;7.40;99.90;;;;;;5115817;28;20705;-76
2021/04/19 01:35:08;;;;;;;52.03;28.42;;;7.20;99.90;;;;;;5117640;28;20543;-76
2021/04/19 01:37:35;;;;;;;55.55;30.60;;;7.00;99.90;;;;;;5116865;28;20181;-76
2021/04/19 01:40:00;;;;;;;60.53;30.92;;;7.00;99.90;;;;;;5117096;28;20200;-76
2021/04/19 01:42:26;;;;;;;61.20;31.25;;;7.00;99.90;;;;;;5117222;28;20529;-76
2021/04/19 01:44:52;;;;;;;67.25;32.83;;;7.10;99.90;;;;;;5116842;28;20675;-76
2021/04/19 01:47:18;;;;;;;54.13;30.65;;;7.10;99.90;;;;;;5094903;28;20538;-76
2021/04/19 01:49:43;;;;;;;61.38;31.25;;;7.10;99.90;;;;;;5115835;28;20177;-76
2021/04/19 01:52:09;;;;;;;62.35;32.92;;;7.10;99.90;;;;;;5116064;28;20240;-76
2021/04/19 01:54:35;;;;;;;67.07;32.78;;;7.10;99.90;;;;;;5115432;28;20229;-76
2021/04/19 01:57:01;;;;;;;75.22;33.55;;;7.10;99.90;;;;;;5116882;28;20261;-76
2021/04/19 01:59:29;;;;;;;53.88;30.20;;;7.20;99.90;;;;;;5117131;28;20222;-76
2021/04/19 02:02:19;;;;;;;54.17;32.55;;;7.20;99.90;;;;;;5115527;28;20173;-75
2021/04/19 02:05:08;;;;;;;65.53;32.47;;;7.10;99.90;;;;;;5116510;28;20169;-76
2021/04/19 02:07:49;;;;;;;54.75;31.67;;;6.90;99.90;;;;;;5116230;28;20158;-76
2021/04/19 02:10:44;;;;;;;68.20;34.25;;;6.80;99.90;;;;;;5116993;28;20179;-75
2021/04/19 02:13:15;;;;;;;63.35;33.38;;;6.80;99.90;;;;;;5115530;28;20165;-76
2021/04/19 02:16:21;;;;;;;62.58;33.80;;;6.90;99.90;;;;;;5114572;28;20197;-76
2021/04/19 02:19:08;;;;;;;77.22;35.03;;;7.00;99.90;;;;;;5013957;28;20176;-78
2021/04/19 02:21:37;;;;;;;68.28;35.17;;;7.10;99.90;;;;;;5091807;28;20174;-76
2021/04/19 02:24:09;;;;;;;67.47;35.22;;;7.10;99.90;;;;;;5096214;28;20162;-75
2021/04/19 02:26:38;;;;;;;67.28;35.00;;;7.20;99.90;;;;;;5098427;28;20154;-76
2021/04/19 02:29:16;;;;;;;64.38;34.10;;;7.20;99.90;;;;;;5115205;28;20567;-76
2021/04/19 02:31:54;;;;;;;59.28;35.60;;;7.10;99.90;;;;;;5115012;28;20204;-76
2021/04/19 02:34:20;;;;;;;69.57;37.97;;;7.10;99.90;;;;;;5114532;28;20580;-76
2021/04/19 02:36:50;;;;;;;67.72;35.75;;;7.00;99.90;;;;;;5115845;28;20257;-76
2021/04/19 02:39:17;;;;;;;65.55;35.38;;;7.10;99.90;;;;;;5116379;28;20194;-75
2021/04/19 02:41:47;;;;;;;67.78;33.97;;;7.20;99.90;;;;;;5114248;28;20170;-76
2021/04/19 02:44:15;;;;;;;68.82;34.88;;;7.10;99.90;;;;;;5115128;28;20261;-76
2021/04/19 02:46:41;;;;;;;63.60;33.65;;;7.00;99.90;;;;;;5115666;28;20645;-75
2021/04/19 02:49:08;;;;;;;61.55;32.55;;;7.00;99.90;;;;;;5116065;28;20200;-76
2021/04/19 02:51:34;;;;;;;57.03;32.03;;;7.00;99.90;;;;;;5114848;28;20169;-76
2021/04/19 02:54:01;;;;;;;59.13;33.20;;;7.00;99.90;;;;;;5116028;28;20234;-76
2021/04/19 02:56:30;;;;;;;56.90;32.43;;;6.80;99.90;;;;;;5115105;28;20573;-76
2021/04/19 02:58:59;;;;;;;66.27;32.40;;;6.60;99.90;;;;;;5115759;28;20164;-76
2021/04/19 03:01:30;;;;;;;74.03;33.93;;;6.60;99.90;;;;;;5115650;28;20164;-77
2021/04/19 03:04:01;;;;;;;69.83;34.80;;;6.70;99.90;;;;;;5114528;28;20581;-76
2021/04/19 03:06:29;;;;;;;66.27;35.47;;;6.70;99.90;;;;;;5115669;28;20249;-76
2021/04/19 03:09:00;;;;;;;62.15;33.47;;;6.90;99.90;;;;;;5115777;28;20294;-75
2021/04/19 03:11:35;;;;;;;63.10;32.93;;;7.00;99.90;;;;;;5115874;27;20150;-77
2021/04/19 03:14:05;;;;;;;61.38;32.78;;;7.10;99.90;;;;;;5114328;28;20213;-76
2021/04/19 03:16:33;;;;;;;59.28;34.17;;;7.20;99.90;;;;;;5115593;27;20196;-76
2021/04/19 03:19:02;;;;;;;71.78;34.10;;;7.20;99.90;;;;;;5115589;28;20165;-76
2021/04/19 03:21:29;;;;;;;71.25;34.63;;;7.20;99.90;;;;;;5115278;28;20166;-76
2021/04/19 03:23:59;;;;;;;65.00;34.20;;;7.20;99.90;;;;;;5114148;28;20161;-75
2021/04/19 03:26:29;;;;;;;68.00;35.15;;;7.30;99.90;;;;;;5115157;28;20246;-76
2021/04/19 03:28:57;;;;;;;75.40;37.35;;;7.40;99.90;;;;;;5115674;28;20282;-76
2021/04/19 03:31:25;;;;;;;68.28;35.20;;;7.30;99.90;;;;;;5114713;28;20176;-76
2021/04/19 03:33:55;;;;;;;60.38;33.10;;;7.40;99.90;;;;;;5099387;28;20185;-76
2021/04/19 03:36:24;;;;;;;64.50;33.83;;;7.40;99.90;;;;;;5113699;28;20621;-76
2021/04/19 03:38:50;;;;;;;70.75;35.70;;;7.40;99.90;;;;;;5114999;28;20203;-76
2021/04/19 03:41:17;;;;;;;67.47;35.10;;;7.40;99.90;;;;;;5114955;28;20195;-76
2021/04/19 03:43:50;;;;;;;72.57;33.80;;;7.40;99.90;;;;;;5114520;28;20583;-76
2021/04/19 03:46:17;;;;;;;64.15;32.55;;;7.50;99.90;;;;;;5114629;28;20162;-76
2021/04/19 03:48:45;;;;;;;59.92;32.50;;;7.50;99.90;;;;;;5071865;28;20179;-76
2021/04/19 03:51:14;;;;;;;62.83;33.95;;;7.70;99.90;;;;;;5071866;28;20186;-76
2021/04/19 03:53:42;;;;;;;81.05;37.55;;;7.70;99.90;;;;;;5070612;28;20183;-76
2021/04/19 03:56:11;;;;;;;82.40;38.20;;;7.80;99.90;;;;;;5071332;28;20232;-76
2021/04/19 03:58:37;;;;;;;92.43;41.08;;;8.10;99.90;;;;;;5071576;28;20659;-75
2021/04/19 04:01:06;;;;;;;120.22;45.30;;;8.10;99.90;;;;;;5071490;28;20258;-77
2021/04/19 04:03:33;;;;;;;110.10;44.45;;;8.30;99.90;;;;;;5071248;28;20179;-76
2021/04/19 04:06:01;;;;;;;116.68;46.92;;;8.30;99.90;;;;;;5054606;28;20174;-76
2021/04/19 04:08:28;;;;;;;112.40;46.08;;;8.30;99.90;;;;;;5062043;28;20237;-77
2021/04/19 04:10:55;;;;;;;130.07;47.45;;;8.30;99.90;;;;;;5071427;28;20182;-76
2021/04/19 04:13:21;;;;;;;130.65;47.00;;;8.20;99.90;;;;;;5070925;28;20171;-76
2021/04/19 04:15:51;;;;;;;123.53;48.15;;;8.20;99.90;;;;;;5071532;28;20199;-75
2021/04/19 04:18:18;;;;;;;141.00;50.25;;;8.20;99.90;;;;;;5071078;28;20203;-76
2021/04/19 04:20:43;;;;;;;130.55;50.22;;;8.20;99.90;;;;;;5109939;28;20188;-76
2021/04/19 04:23:09;;;;;;;136.60;48.90;;;8.20;99.90;;;;;;5112958;28;20169;-76
2021/04/19 04:25:35;;;;;;;112.95;46.20;;;8.30;99.90;;;;;;5113121;28;20177;-76
2021/04/19 04:28:03;;;;;;;138.98;50.30;;;8.40;99.90;;;;;;5092301;28;20170;-75
2021/04/19 04:30:30;;;;;;;163.57;50.85;;;8.40;99.90;;;;;;5126849;27;20170;-76
2021/04/19 04:32:55;;;;;;;167.20;49.75;;;8.40;99.90;;;;;;5108867;28;20216;-76
2021/04/19 04:35:21;;;;;;;148.07;50.72;;;8.50;99.90;;;;;;5112698;28;20220;-76
2021/04/19 04:37:47;;;;;;;146.70;49.92;;;8.50;99.90;;;;;;5112655;28;20176;-75
2021/04/19 04:40:13;;;;;;;166.10;50.00;;;8.50;99.90;;;;;;5112673;28;20174;-76
2021/04/19 04:42:41;;;;;;;159.40;51.60;;;8.40;99.90;;;;;;5113674;28;20170;-75
2021/04/19 04:45:07;;;;;;;135.57;47.22;;;8.40;99.90;;;;;;5113573;28;20180;-76
2021/04/19 04:47:36;;;;;;;145.98;50.28;;;8.30;99.90;;;;;;5112444;28;20208;-76
2021/04/19 04:50:01;;;;;;;151.68;50.42;;;8.30;99.90;;;;;;5093375;28;20167;-75
2021/04/19 04:52:33;;;;;;;155.80;52.05;;;8.30;99.90;;;;;;5104211;28;20173;-76
2021/04/19 04:55:01;;;;;;;163.38;49.60;;;8.30;99.90;;;;;;5114112;28;20541;-75
2021/04/19 04:57:28;;;;;;;140.93;48.58;;;8.50;99.90;;;;;;5113830;28;20531;-76
2021/04/19 04:59:56;;;;;;;178.68;49.35;;;8.50;99.90;;;;;;5113820;28;20177;-76
2021/04/19 05:02:23;;;;;;;145.25;47.92;;;8.50;99.90;;;;;;5111870;28;20169;-76
2021/04/19 05:04:53;;;;;;;140.70;49.17;;;8.60;99.90;;;;;;5114423;28;20248;-76
2021/04/19 05:07:20;;;;;;;136.15;48.90;;;8.60;99.90;;;;;;5115738;28;20176;-76
2021/04/19 05:09:48;;;;;;;148.27;50.35;;;8.60;99.90;;;;;;5117407;28;20226;-75
2021/04/19 05:12:15;;;;;;;139.55;48.55;;;8.60;99.90;;;;;;5118452;28;20285;-76
2021/04/19 05:14:54;;;;;;;141.85;51.40;;;8.50;99.90;;;;;;5118008;28;20192;-76
2021/04/19 05:17:20;;;;;;;153.88;50.17;;;8.50;99.90;;;;;;5117864;28;20165;-76
2021/04/19 05:19:46;;;;;;;158.93;52.42;;;8.40;99.90;;;;;;5115826;28;20177;-75
2021/04/19 05:22:11;;;;;;;133.68;49.05;;;8.50;99.90;;;;;;5117937;28;20252;-75
2021/04/19 05:24:37;;;;;;;141.52;51.10;;;8.50;99.90;;;;;;5116446;28;20179;-75
2021/04/19 05:27:03;;;;;;;122.50;47.22;;;8.50;99.90;;;;;;5117703;28;20256;-76
2021/04/19 05:29:30;;;;;;;142.70;45.25;;;8.60;99.90;;;;;;5115794;28;20165;-76
2021/04/19 05:31:56;;;;;;;114.53;44.63;;;8.60;99.90;;;;;;5115649;28;20222;-76
2021/04/19 05:34:21;;;;;;;122.78;45.85;;;8.60;99.90;;;;;;5117241;28;20551;-76
2021/04/19 05:36:47;;;;;;;146.13;45.55;;;8.70;99.90;;;;;;5117185;28;20642;-76
2021/04/19 05:39:13;;;;;;;128.52;46.53;;;8.70;99.90;;;;;;5115293;28;20170;-76
2021/04/19 05:41:39;;;;;;;142.20;47.28;;;8.80;99.90;;;;;;5117164;28;20173;-76
2021/04/19 05:44:06;;;;;;;114.13;46.55;;;8.80;99.90;;;;;;5116089;28;20242;-76
2021/04/19 05:46:32;;;;;;;140.02;48.55;;;9.00;99.90;;;;;;5115647;28;20234;-76
2021/04/19 05:48:58;;;;;;;132.50;46.85;;;9.10;99.90;;;;;;5115627;28;20614;-75
2021/04/19 05:51:27;;;;;;;134.60;47.88;;;9.20;99.90;;;;;;5115785;28;20641;-76
2021/04/19 05:53:56;;;;;;;120.93;46.13;;;9.30;99.90;;;;;;5117026;28;20253;-76
2021/04/19 05:56:47;;;;;;;122.28;46.22;;;9.30;99.90;;;;;;5116879;28;20296;-76
2021/04/19 05:59:19;;;;;;;113.70;43.75;;;9.30;99.90;;;;;;5115112;28;20162;-76
2021/04/19 06:01:49;;;;;;;119.78;43.95;;;9.30;99.90;;;;;;5115939;28;20161;-76
2021/04/19 06:04:46;;;;;;;121.68;44.90;;;9.40;99.90;;;;;;5117083;28;20163;-76
2021/04/19 06:07:17;;;;;;;122.75;43.72;;;9.50;99.90;;;;;;5117100;28;20165;-76
2021/04/19 06:09:53;;;;;;;111.65;44.13;;;9.50;99.90;;;;;;5116798;28;20223;-76
2021/04/19 06:12:22;;;;;;;100.18;39.35;;;9.70;99.90;;;;;;5115475;28;20176;-76
2021/04/19 06:14:51;;;;;;;116.53;41.97;;;9.80;99.90;;;;;;5116842;27;20193;-76
2021/04/19 06:17:20;;;;;;;115.57;42.35;;;9.80;99.90;;;;;;5114133;27;20173;-76
2021/04/19 06:19:46;;;;;;;103.70;42.20;;;9.80;99.90;;;;;;5116274;27;20174;-76
2021/04/19 06:22:19;;;;;;;93.78;40.90;;;9.90;99.90;;;;;;5114711;28;20169;-76
2021/04/19 06:24:51;;;;;;;106.55;41.53;;;9.90;99.90;;;;;;5115157;28;20169;-76
2021/04/19 06:27:18;;;;;;;94.90;41.05;;;10.10;99.90;;;;;;5128856;27;20166;-76
2021/04/19 06:29:44;;;;;;;107.85;42.40;;;10.20;99.90;;;;;;5083769;28;20264;-76
2021/04/19 06:32:10;;;;;;;95.07;41.13;;;10.30;99.90;;;;;;5114402;28;20272;-76
2021/04/19 06:34:36;;;;;;;103.75;41.33;;;10.30;99.90;;;;;;5114918;28;20196;-77
2021/04/19 06:37:01;;;;;;;106.82;40.42;;;10.30;99.90;;;;;;5116616;28;20170;-76
2021/04/19 06:39:27;;;;;;;100.03;40.40;;;10.30;99.90;;;;;;5115953;28;20563;-76
2021/04/19 06:41:53;;;;;;;82.43;37.92;;;10.30;99.90;;;;;;5114694;28;20630;-76
2021/04/19 06:44:21;;;;;;;91.75;38.55;;;10.40;99.90;;;;;;5114589;28;20177;-76
2021/04/19 06:46:47;;;;;;;95.45;40.05;;;10.30;99.90;;;;;;5115763;28;20252;-76
2021/04/19 06:49:13;;;;;;;95.75;39.90;;;10.30;99.90;;;;;;5114807;28;20311;-76
2021/04/19 06:51:39;;;;;;;97.55;39.03;;;10.30;99.90;;;;;;5094215;28;20167;-76
2021/04/19 06:54:05;;;;;;;88.55;39.42;;;10.50;99.90;;;;;;5103123;28;20177;-76
2021/04/19 06:56:39;;;;;;;93.50;39.53;;;10.50;99.90;;;;;;5114615;28;20617;-76
2021/04/19 06:59:08;;;;;;;95.05;39.58;;;10.60;99.90;;;;;;5114758;28;20201;-76
2021/04/19 07:01:34;;;;;;;101.57;38.20;;;10.60;99.90;;;;;;5114455;28;20170;-76
2021/04/19 07:04:02;;;;;;;92.45;39.78;;;10.60;99.90;;;;;;5113866;28;20633;-76
2021/04/19 07:06:36;;;;;;;93.65;39.88;;;10.60;99.90;;;;;;5114572;28;20173;-76
2021/04/19 07:09:12;;;;;;;95.90;42.10;;;10.60;99.90;;;;;;5113703;28;20176;-76
2021/04/19 07:11:40;;;;;;;103.53;42.35;;;10.70;99.90;;;;;;5115536;27;20664;-76
2021/04/19 07:14:08;;;;;;;93.38;39.75;;;10.80;99.90;;;;;;5115582;28;20252;-76
2021/04/19 07:16:34;;;;;;;88.75;39.65;;;11.10;99.90;;;;;;5114268;28;20174;-78
2021/04/19 07:19:01;;;;;;;90.65;41.88;;;11.20;99.90;;;;;;5115075;28;20176;-77
2021/04/19 07:21:27;;;;;;;93.25;42.00;;;11.20;99.90;;;;;;5113809;28;20268;-76
2021/04/19 07:23:54;;;;;;;102.18;44.45;;;11.30;99.90;;;;;;5115461;28;20264;-75
2021/04/19 07:26:19;;;;;;;90.38;43.78;;;11.40;99.90;;;;;;5115513;28;20173;-76
2021/04/19 07:28:45;;;;;;;100.15;43.83;;;11.70;99.90;;;;;;5113585;28;20169;-77
2021/04/19 07:31:11;;;;;;;96.22;43.53;;;12.20;99.90;;;;;;5114969;28;20230;-76
2021/04/19 07:33:37;;;;;;;85.18;40.50;;;12.80;99.90;;;;;;5113713;28;20284;-76
2021/04/19 07:36:19;;;;;;;85.32;42.17;;;13.30;99.90;;;;;;5115191;28;20661;-77
2021/04/19 07:38:45;;;;;;;90.85;41.95;;;13.70;99.90;;;;;;5114663;27;20169;-77
2021/04/19 07:41:12;;;;;;;84.22;41.53;;;14.00;99.90;;;;;;5113400;28;20182;-78
2021/04/19 07:43:39;;;;;;;82.43;41.42;;;14.30;99.90;;;;;;5113026;28;20526;-76
2021/04/19 07:46:11;;;;;;;85.00;39.58;;;14.40;99.90;;;;;;5114569;28;20182;-77
2021/04/19 07:48:44;;;;;;;69.15;37.85;;;14.30;99.90;;;;;;5113859;28;20252;-75
2021/04/19 07:51:37;;;;;;;70.95;36.40;;;14.50;99.90;;;;;;5114693;28;20210;-77
2021/04/19 07:54:16;;;;;;;73.78;37.35;;;15.20;99.90;;;;;;5113356;28;20173;-76
2021/04/19 07:56:44;;;;;;;71.28;37.40;;;15.80;99.90;;;;;;5109295;28;20178;-75
2021/04/19 07:59:31;;;;;;;72.70;38.78;;;16.00;99.90;;;;;;5114381;28;20190;-78
2021/04/19 08:02:05;;;;;;;72.93;38.72;;;16.00;99.90;;;;;;5113033;28;20272;-76
2021/04/19 08:04:32;;;;;;;78.78;39.30;;;16.10;99.90;;;;;;5113509;28;20188;-76
2021/04/19 08:06:58;;;;;;;68.80;36.53;;;16.50;99.90;;;;;;5121386;27;20172;-75
2021/04/19 08:09:25;;;;;;;63.08;34.85;;;17.60;99.90;;;;;;5129248;27;20173;-76
2021/04/19 08:11:57;;;;;;;64.05;35.40;;;19.10;99.90;;;;;;5120757;27;20257;-77
2021/04/19 08:14:27;;;;;;;66.72;35.63;;;19.60;99.90;;;;;;5107648;28;20191;-77
2021/04/19 08:17:12;;;;;;;65.32;34.05;;;19.30;99.90;;;;;;5113172;28;20628;-75
2021/04/19 08:19:39;;;;;;;54.28;34.40;;;18.60;99.90;;;;;;5114218;28;20150;-76
2021/04/19 08:22:32;;;;;;;56.30;34.25;;;18.90;99.90;;;;;;5114189;28;20170;-76
2021/04/19 08:25:13;;;;;;;47.17;31.23;;;21.20;99.90;;;;;;5128245;27;20184;-76
2021/04/19 08:27:44;;;;;;;53.75;31.35;;;22.60;99.90;;;;;;5129031;27;20165;-76
2021/04/19 08:30:12;;;;;;;55.55;30.52;;;24.40;99.90;;;;;;5123569;27;20279;-76
2021/04/19 08:32:38;;;;;;;45.95;30.52;;;26.60;97.90;;;;;;5113457;28;20230;-77
2021/04/19 08:35:06;;;;;;;42.60;27.13;;;28.10;94.80;;;;;;5132435;27;20516;-76
2021/04/19 08:37:32;;;;;;;47.08;28.40;;;29.90;91.60;;;;;;5141834;27;20173;-77
2021/04/19 08:40:00;;;;;;;36.00;27.60;;;29.80;87.70;;;;;;5110859;28;20264;-75
2021/04/19 08:42:26;;;;;;;37.72;26.83;;;29.20;87.50;;;;;;5093365;28;20189;-77
2021/04/19 08:44:58;;;;;;;33.72;24.73;;;29.70;86.20;;;;;;5079894;28;20644;-76
2021/04/19 08:47:27;;;;;;;30.55;23.13;;;31.10;80.00;;;;;;5112582;27;20590;-76
2021/04/19 08:50:03;;;;;;;39.05;26.80;;;32.40;79.00;;;;;;5093904;28;20178;-78
2021/04/19 08:52:29;;;;;;;30.08;24.00;;;33.10;74.00;;;;;;5109828;27;20176;-76
2021/04/19 08:54:55;;;;;;;36.85;23.75;;;33.40;73.00;;;;;;5111244;28;20209;-76
2021/04/19 08:57:22;;;;;;;43.08;24.45;;;32.30;69.10;;;;;;5100821;28;20262;-77
2021/04/19 08:59:50;;;;;;;33.45;26.63;;;32.90;71.50;;;;;;5133190;28;20210;-77
2021/04/19 09:02:17;;;;;;;33.20;25.38;;;32.30;71.60;;;;;;5111754;28;20182;-78
2021/04/19 09:05:01;;;;;;;34.22;24.98;;;32.30;71.60;;;;;;5099646;28;20170;-77
2021/04/19 09:07:30;;;;;;;40.05;26.48;;;33.10;71.90;;;;;;5112443;28;20678;-77
2021/04/19 09:09:56;;;;;;;28.80;22.45;;;34.00;68.20;;;;;;5113677;28;20204;-77
2021/04/19 09:12:24;;;;;;;25.17;20.27;;;35.10;67.00;;;;;;5114122;28;20568;-77
2021/04/19 09:14:50;;;;;;;27.75;20.05;;;35.10;64.10;;;;;;5112122;28;20193;-78
2021/04/19 09:17:27;;;;;;;23.45;19.98;;;35.50;61.60;;;;;;5102550;28;20602;-77
2021/04/19 09:19:57;;;;;;;25.35;20.80;;;34.70;61.00;;;;;;5108380;28;20176;-76
2021/04/19 09:22:23;;;;;;;30.38;20.30;;;34.40;61.40;;;;;;5107157;28;20526;-77
2021/04/19 09:25:02;;;;;;;29.52;21.10;;;32.40;62.90;;;;;;5128424;27;20263;-77
2021/04/19 09:27:45;;;;;;;32.15;21.83;;;31.60;65.70;;;;;;5134130;27;20500;-76
2021/04/19 09:30:27;;;;;;;30.55;21.40;;;31.30;67.20;;;;;;5132581;28;20165;-75
2021/04/19 09:33:04;;;;;;;26.85;19.80;;;31.90;65.70;;;;;;5133044;27;20272;-76
2021/04/19 09:35:41;;;;;;;23.23;19.13;;;32.40;64.20;;;;;;5095598;28;20621;-76
2021/04/19 09:38:10;;;;;;;25.10;19.92;;;33.00;63.40;;;;;;5110922;28;20526;-76
2021/04/19 09:40:47;;;;;;;25.65;18.90;;;34.30;61.30;;;;;;5111262;28;20173;-76
2021/04/19 09:43:29;;;;;;;25.55;17.02;;;35.50;61.70;;;;;;5113530;28;20165;-75
2021/04/19 09:45:56;;;;;;;26.60;17.67;;;34.70;61.10;;;;;;5111936;28;20177;-76
2021/04/19 09:48:27;;;;;;;21.92;16.77;;;33.80;60.70;;;;;;5107541;28;20171;-76
2021/04/19 09:51:02;;;;;;;24.38;16.02;;;32.30;63.20;;;;;;5093434;28;20254;-79
2021/04/19 09:53:30;;;;;;;20.80;16.73;;;32.90;61.20;;;;;;5113957;28;20164;-80
2021/04/19 09:55:57;;;;;;;21.85;15.55;;;33.20;60.50;;;;;;5115828;28;20193;-77
2021/04/19 09:58:22;;;;;;;25.75;15.35;;;34.40;59.80;;;;;;5095155;28;20522;-80
2021/04/19 10:00:59;;;;;;;20.23;15.45;;;35.50;59.30;;;;;;5097544;28;20174;-78
2021/04/19 10:03:25;;;;;;;22.80;14.48;;;36.40;57.80;;;;;;5115094;28;20256;-78
2021/04/19 10:05:52;;;;;;;20.67;14.27;;;34.80;58.60;;;;;;5116263;27;20259;-79
2021/04/19 10:08:25;;;;;;;20.05;12.85;;;34.60;59.10;;;;;;5115409;28;20183;-79
2021/04/19 10:10:52;;;;;;;22.27;12.00;;;34.30;57.40;;;;;;5116516;28;20262;-78
2021/04/19 10:13:38;;;;;;;29.55;12.93;;;31.50;59.70;;;;;;5083563;28;20618;-81
2021/04/19 10:16:12;;;;;;;21.52;12.18;;;30.20;62.50;;;;;;5112069;28;20190;-79
2021/04/19 10:18:43;;;;;;;23.95;12.00;;;28.60;64.40;;;;;;5094951;28;20170;-77
2021/04/19 10:21:21;;;;;;;19.98;11.52;;;28.50;64.70;;;;;;5109243;28;20215;-78
2021/04/19 10:23:47;;;;;;;22.02;12.18;;;30.20;63.70;;;;;;5104729;28;20169;-79
2021/04/19 10:26:13;;;;;;;24.20;11.38;;;30.80;63.20;;;;;;5111382;28;20185;-78
2021/04/19 10:28:42;;;;;;;17.73;10.68;;;31.80;60.70;;;;;;5109939;28;20558;-82
2021/04/19 10:31:19;;;;;;;20.75;10.93;;;33.30;58.60;;;;;;5114533;28;20238;-79
2021/04/19 10:33:51;;;;;;;21.85;11.50;;;32.80;58.80;;;;;;5106109;28;20181;-80
2021/04/19 10:36:20;;;;;;;13.30;9.77;;;32.80;59.80;;;;;;5100330;28;20198;-79
2021/04/19 10:38:49;;;;;;;18.05;10.32;;;33.40;59.40;;;;;;5099972;28;20182;-79
2021/04/19 10:41:15;;;;;;;20.17;10.60;;;31.40;59.40;;;;;;5106626;28;20233;-79
2021/04/19 10:43:42;;;;;;;12.82;9.18;;;31.10;61.90;;;;;;5115308;28;20173;-80
2021/04/19 10:46:39;;;;;;;17.10;10.35;;;31.50;59.80;;;;;;5108273;28;20177;-78
2021/04/19 10:49:06;;;;;;;14.88;9.05;;;31.50;59.20;;;;;;5079013;28;20186;-83
2021/04/19 10:51:36;;;;;;;13.45;8.15;;;32.50;59.30;;;;;;5104961;28;20189;-79
2021/04/19 10:54:06;;;;;;;14.75;9.00;;;31.30;59.00;;;;;;5103875;28;20173;-79
2021/04/19 10:56:31;;;;;;;18.85;10.10;;;30.20;60.60;;;;;;5096918;28;20715;-80
2021/04/19 10:59:05;;;;;;;20.40;10.35;;;30.80;61.70;;;;;;5114814;28;20174;-76
2021/04/19 11:01:33;;;;;;;19.02;8.82;;;31.80;59.20;;;;;;5108383;28;20205;-76
2021/04/19 11:04:01;;;;;;;14.23;7.97;;;30.90;59.90;;;;;;5109707;28;20177;-76
2021/04/19 11:06:28;;;;;;;11.82;7.55;;;30.20;59.70;;;;;;5113689;28;20234;-76
2021/04/19 11:09:19;;;;;;;11.23;7.10;;;29.80;59.90;;;;;;5115285;28;20564;-75
2021/04/19 11:11:47;;;;;;;12.50;7.60;;;29.30;60.30;;;;;;5118781;27;20225;-76
2021/04/19 11:14:19;;;;;;;12.65;8.32;;;30.70;59.30;;;;;;5092946;28;20178;-79
2021/04/19 11:16:56;;;;;;;10.90;7.82;;;32.20;58.30;;;;;;5101213;28;20533;-78
2021/04/19 11:19:28;;;;;;;10.73;8.50;;;34.00;57.50;;;;;;5108259;28;20173;-76
2021/04/19 11:21:54;;;;;;;13.15;7.80;;;34.50;57.60;;;;;;5092834;28;20189;-78
2021/04/19 11:24:20;;;;;;;16.60;9.93;;;33.20;57.10;;;;;;5097546;28;20186;-76
2021/04/19 11:26:45;;;;;;;12.30;8.23;;;32.00;57.80;;;;;;5107539;28;20260;-76
2021/04/19 11:29:11;;;;;;;12.07;9.27;;;29.90;59.80;;;;;;5113797;28;20490;-75
2021/04/19 11:31:46;;;;;;;18.23;9.38;;;29.30;60.90;;;;;;5113937;28;20230;-75
2021/04/19 11:34:16;;;;;;;16.23;9.00;;;28.20;62.10;;;;;;5114004;28;20226;-75
2021/04/19 11:36:45;;;;;;;11.10;8.27;;;26.60;65.20;;;;;;5104476;28;20333;-76
2021/04/19 11:39:21;;;;;;;13.35;7.55;;;25.70;66.20;;;;;;5094487;28;20166;-76
2021/04/19 11:41:48;;;;;;;9.32;7.47;;;26.70;64.20;;;;;;5094101;28;20174;-78
2021/04/19 11:44:15;;;;;;;16.30;9.48;;;29.50;61.90;;;;;;5094107;28;20241;-76
2021/04/19 11:46:48;;;;;;;11.68;7.95;;;30.60;59.70;;;;;;5104256;28;20174;-74
2021/04/19 11:49:20;;;;;;;11.30;8.55;;;30.90;63.60;;;;;;5113718;28;20677;-75
2021/04/19 11:51:46;;;;;;;15.07;9.15;;;29.80;60.90;;;;;;5104766;28;20174;-75
2021/04/19 11:54:12;;;;;;;12.10;7.70;;;30.70;60.10;;;;;;5108763;28;20564;-76
2021/04/19 11:56:38;;;;;;;10.75;8.68;;;30.70;59.40;;;;;;5112796;28;20562;-76
2021/04/19 11:59:06;;;;;;;11.57;8.52;;;31.50;59.50;;;;;;5118551;27;20173;-76
2021/04/19 12:01:33;;;;;;;13.48;7.45;;;29.60;61.50;;;;;;5111473;27;20178;-77
2021/04/19 12:03:59;;;;;;;11.00;7.65;;;27.10;63.60;;;;;;5092997;28;20231;-76
2021/04/19 12:06:26;;;;;;;17.08;7.75;;;24.40;66.00;;;;;;5093757;28;20181;-76
2021/04/19 12:08:52;;;;;;;14.63;7.72;;;22.30;72.10;;;;;;5094110;28;20188;-75
2021/04/19 12:11:21;;;;;;;14.77;8.15;;;21.00;76.40;;;;;;5099675;28;20169;-75
2021/04/19 12:13:48;;;;;;;15.15;7.47;;;20.10;77.30;;;;;;5102279;28;20223;-77
2021/04/19 12:16:13;;;;;;;11.63;8.68;;;19.80;82.30;;;;;;5096300;28;20672;-76
2021/04/19 12:18:39;;;;;;;23.48;9.00;;;20.30;79.90;;;;;;5114210;28;20200;-76
2021/04/19 12:21:06;;;;;;;17.88;8.90;;;20.90;79.10;;;;;;5112289;28;20161;-76
2021/04/19 12:23:34;;;;;;;12.43;9.23;;;21.40;78.70;;;;;;5111139;28;20677;-75
2021/04/19 12:26:01;;;;;;;12.77;9.05;;;21.60;76.10;;;;;;5093045;28;20213;-76
2021/04/19 12:28:27;;;;;;;12.85;8.15;;;21.60;75.60;;;;;;5112805;28;20201;-75
2021/04/19 12:30:54;;;;;;;16.40;7.63;;;21.70;77.90;;;;;;5086047;28;20518;-75
2021/04/19 12:33:21;;;;;;;18.95;7.82;;;22.30;76.00;;;;;;5096276;28;20194;-76
2021/04/19 12:35:47;;;;;;;13.05;8.02;;;22.60;74.90;;;;;;5110441;28;20551;-76
2021/04/19 12:38:13;;;;;;;8.90;7.05;;;22.70;75.00;;;;;;5110283;28;20267;-76
2021/04/19 12:40:39;;;;;;;11.18;8.40;;;22.40;75.90;;;;;;5112885;28;20265;-75